sim
Sign-in with your pilot id or email,
or register
Callsign
Passwort

Schedule Details

Flight Number: DLH2227
Departure: Paris Charles de Gaulle Airport (LFPG) at 08:00
Arrival: Munich Airport (EDDM) at 09:25
Route: Lufthansa Passenger Schedule. Enter filed route here before submitting Pirep.

Weather Information
Getting current METAR information for LFPG 201900Z 02005KT 350V070 CAVOK 24/14 Q1015 NOSIG
Getting current METAR information for EDDM 201920Z 35001KT CAVOK 13/11 Q1016 NOSIG

Schedule Frequency

Route Map